Time;durP1;ratioP1;P1;durP2;ratioP2;P2;SDS_P1;SDS_P2;PMS_P1;PMS_P2;Temp;Humidity;BMP_temperature;BMP_pressure;BME280_temperature;BME280_humidity;BME280_pressure;Samples;Min_cycle;Max_cycle;Signal;HPM_P1;HPM_P2
2021/12/24 00:01:08;;;;;;;25.73;17.07;;;;;;;;;;4998565;28;20240;-57
2021/12/24 00:03:34;;;;;;;27.90;18.13;;;;;;;;;;5005288;28;20236;-57
2021/12/24 00:06:00;;;;;;;26.40;18.10;;;;;;;;;;5008463;28;20762;-56
2021/12/24 00:08:26;;;;;;;27.17;17.50;;;;;;;;;;5005657;28;20243;-57
2021/12/24 00:10:58;;;;;;;27.77;17.63;;;;;;;;;;5006117;28;20709;-56
2021/12/24 00:13:24;;;;;;;25.83;17.37;;;;;;;;;;5000988;28;20236;-57
2021/12/24 00:37:16;;;;;;;29.83;18.93;;;;;;;;;;5007977;28;21296;-57
2021/12/24 00:39:51;;;;;;;28.17;18.83;;;;;;;;;;5006466;28;20288;-57
2021/12/24 00:42:17;;;;;;;31.50;19.30;;;;;;;;;;5012592;28;20228;-56
2021/12/24 00:44:43;;;;;;;27.63;19.13;;;;;;;;;;5013381;28;20224;-57
2021/12/24 00:47:09;;;;;;;32.00;19.43;;;;;;;;;;5009282;28;20341;-57
2021/12/24 00:49:34;;;;;;;34.70;20.20;;;;;;;;;;4997672;28;20715;-56
2021/12/24 00:52:46;;;;;;;30.00;20.53;;;;;;;;;;5004319;28;20235;-57
2021/12/24 00:55:03;;;;;;;27.40;19.57;;;;;;;;;;5000688;28;20238;-57
2021/12/24 00:57:35;;;;;;;26.87;19.17;;;;;;;;;;5001552;28;20498;-57
2021/12/24 01:00:01;;;;;;;27.23;19.03;;;;;;;;;;5005014;28;20251;-57
2021/12/24 01:02:27;;;;;;;30.17;18.90;;;;;;;;;;4990948;28;20245;-57
2021/12/24 01:04:53;;;;;;;27.97;19.27;;;;;;;;;;4986919;28;20712;-57
2021/12/24 01:07:19;;;;;;;29.20;19.80;;;;;;;;;;5002198;28;20232;-57
2021/12/24 01:09:45;;;;;;;27.57;19.20;;;;;;;;;;4993645;28;20247;-57
2021/12/24 01:12:11;;;;;;;29.10;18.93;;;;;;;;;;4973947;28;20227;-57
2021/12/24 01:14:37;;;;;;;28.23;19.13;;;;;;;;;;5000165;28;20710;-57
2021/12/24 01:19:50;;;;;;;28.87;20.27;;;;;;;;;;4991760;28;20986;-57
2021/12/24 01:25:17;;;;;;;29.53;19.87;;;;;;;;;;4980099;28;20985;-57
2021/12/24 01:38:32;;;;;;;28.23;19.23;;;;;;;;;;4994496;28;20356;-57
2021/12/24 01:43:28;;;;;;;29.80;18.27;;;;;;;;;;4986006;28;20265;-57
2021/12/24 01:45:54;;;;;;;24.73;18.40;;;;;;;;;;4995361;28;20259;-57
2021/12/24 01:48:20;;;;;;;23.97;18.03;;;;;;;;;;5003020;28;20818;-57
2021/12/24 01:50:47;;;;;;;25.13;17.53;;;;;;;;;;4998095;28;20442;-56
2021/12/24 01:53:13;;;;;;;25.53;17.50;;;;;;;;;;4994455;28;20270;-57
2021/12/24 01:55:40;;;;;;;29.17;18.17;;;;;;;;;;4992472;28;20240;-57
2021/12/24 01:58:06;;;;;;;29.27;17.93;;;;;;;;;;4997620;28;20271;-57
2021/12/24 02:00:33;;;;;;;25.47;17.57;;;;;;;;;;4991710;28;20617;-57
2021/12/24 02:02:59;;;;;;;29.93;17.97;;;;;;;;;;4991453;28;22663;-58
2021/12/24 02:05:25;;;;;;;25.20;18.53;;;;;;;;;;4979243;28;20228;-57
2021/12/24 02:07:51;;;;;;;28.10;17.90;;;;;;;;;;4992358;28;20236;-56
2021/12/24 02:10:17;;;;;;;25.17;17.10;;;;;;;;;;4987267;28;20235;-56
2021/12/24 02:12:43;;;;;;;26.50;17.27;;;;;;;;;;4981596;28;20244;-57
2021/12/24 02:15:15;;;;;;;28.57;18.33;;;;;;;;;;4991332;28;20648;-57
2021/12/24 02:28:38;;;;;;;30.70;19.50;;;;;;;;;;4978734;28;20301;-56
2021/12/24 02:31:04;;;;;;;28.20;17.73;;;;;;;;;;4980106;28;20223;-56
2021/12/24 02:33:30;;;;;;;28.57;17.60;;;;;;;;;;4987010;28;20236;-56
2021/12/24 02:35:56;;;;;;;25.77;17.63;;;;;;;;;;4992540;28;21667;-56
2021/12/24 02:38:22;;;;;;;26.47;18.13;;;;;;;;;;4996756;28;20318;-57
2021/12/24 02:40:48;;;;;;;32.23;19.60;;;;;;;;;;4987059;28;20244;-57
2021/12/24 02:43:18;;;;;;;27.27;18.27;;;;;;;;;;4985552;28;20236;-57
2021/12/24 02:45:46;;;;;;;26.00;18.23;;;;;;;;;;4993232;28;20228;-57
2021/12/24 02:56:40;;;;;;;24.70;17.20;;;;;;;;;;4995223;28;20249;-57
2021/12/24 02:59:13;;;;;;;25.40;18.33;;;;;;;;;;4995594;28;20815;-57
2021/12/24 03:01:39;;;;;;;25.87;18.77;;;;;;;;;;4997262;28;20231;-56
2021/12/24 03:04:05;;;;;;;25.13;17.80;;;;;;;;;;4986357;28;20303;-57
2021/12/24 03:06:34;;;;;;;30.10;18.53;;;;;;;;;;4990946;28;20267;-57
2021/12/24 03:09:00;;;;;;;27.23;17.93;;;;;;;;;;5001561;28;20389;-57
2021/12/24 03:11:26;;;;;;;28.47;17.47;;;;;;;;;;4996296;28;20458;-57
2021/12/24 03:13:52;;;;;;;23.47;16.40;;;;;;;;;;4995738;28;20251;-57
2021/12/24 03:16:18;;;;;;;21.37;16.97;;;;;;;;;;5001224;28;20227;-57
2021/12/24 03:18:45;;;;;;;24.43;16.80;;;;;;;;;;4996143;28;20883;-57
2021/12/24 03:21:23;;;;;;;26.57;16.83;;;;;;;;;;5000438;28;20271;-57
2021/12/24 03:26:31;;;;;;;24.03;16.60;;;;;;;;;;4989749;28;20231;-56
2021/12/24 03:28:57;;;;;;;25.87;16.33;;;;;;;;;;5000274;28;20744;-57
2021/12/24 03:31:23;;;;;;;27.90;16.03;;;;;;;;;;5001688;28;20318;-57
2021/12/24 03:33:53;;;;;;;27.37;16.80;;;;;;;;;;4999350;28;22046;-57
2021/12/24 03:36:19;;;;;;;31.20;17.13;;;;;;;;;;4991863;28;20327;-57
2021/12/24 03:38:45;;;;;;;24.87;16.73;;;;;;;;;;4999739;28;20229;-57
2021/12/24 03:41:11;;;;;;;23.63;15.73;;;;;;;;;;4994169;28;20244;-57
2021/12/24 03:43:37;;;;;;;24.50;15.90;;;;;;;;;;5007990;28;20224;-57
2021/12/24 03:46:07;;;;;;;24.67;15.70;;;;;;;;;;5001611;28;20286;-56
2021/12/24 03:56:40;;;;;;;25.30;15.27;;;;;;;;;;4989241;28;20293;-57
2021/12/24 03:59:07;;;;;;;24.97;16.30;;;;;;;;;;5000304;28;20256;-57
2021/12/24 04:01:33;;;;;;;21.23;15.60;;;;;;;;;;4997930;28;20353;-57
2021/12/24 04:03:59;;;;;;;24.40;15.70;;;;;;;;;;4989300;28;20457;-57
2021/12/24 04:06:25;;;;;;;25.30;16.73;;;;;;;;;;4987816;28;20637;-57
2021/12/24 04:08:51;;;;;;;25.17;16.00;;;;;;;;;;4997429;28;20318;-56
2021/12/24 04:11:17;;;;;;;24.93;17.50;;;;;;;;;;4999374;28;21244;-57
2021/12/24 04:13:43;;;;;;;25.67;16.93;;;;;;;;;;4994775;28;20227;-57
2021/12/24 04:16:09;;;;;;;25.40;17.20;;;;;;;;;;5003444;28;20340;-57
2021/12/24 04:19:34;;;;;;;22.77;16.30;;;;;;;;;;4998444;28;20251;-57
2021/12/24 04:26:53;;;;;;;24.90;16.53;;;;;;;;;;5001720;28;20302;-57
2021/12/24 04:29:19;;;;;;;28.27;18.00;;;;;;;;;;5000724;28;20241;-57
2021/12/24 04:31:54;;;;;;;27.77;16.90;;;;;;;;;;5001916;28;20327;-57
2021/12/24 04:34:25;;;;;;;24.47;16.07;;;;;;;;;;4994398;28;20622;-57
2021/12/24 04:39:50;;;;;;;24.20;15.80;;;;;;;;;;4995464;28;20624;-56
2021/12/24 05:01:37;;;;;;;28.33;16.93;;;;;;;;;;5014780;28;20561;-57
2021/12/24 05:04:05;;;;;;;27.83;16.60;;;;;;;;;;5018000;28;20565;-57
2021/12/24 05:06:37;;;;;;;25.80;16.07;;;;;;;;;;5007735;28;20266;-57
2021/12/24 05:09:09;;;;;;;29.53;17.10;;;;;;;;;;5006972;28;20228;-56
2021/12/24 05:11:36;;;;;;;27.47;16.23;;;;;;;;;;5001785;28;20270;-57
2021/12/24 05:14:02;;;;;;;24.33;16.87;;;;;;;;;;5009305;28;20355;-56
2021/12/24 05:16:48;;;;;;;22.60;14.97;;;;;;;;;;5009030;28;20227;-57
2021/12/24 05:21:44;;;;;;;26.80;16.17;;;;;;;;;;4987569;28;20445;-56
2021/12/24 05:24:12;;;;;;;27.57;16.53;;;;;;;;;;5003846;28;20694;-56
2021/12/24 05:26:38;;;;;;;25.83;16.47;;;;;;;;;;5000256;28;22401;-57
2021/12/24 05:29:04;;;;;;;29.13;17.43;;;;;;;;;;4993260;28;20220;-57
2021/12/24 05:31:30;;;;;;;27.53;17.67;;;;;;;;;;5003837;28;20232;-57
2021/12/24 05:33:56;;;;;;;28.87;16.90;;;;;;;;;;4991493;28;20226;-57
2021/12/24 05:36:22;;;;;;;25.73;17.10;;;;;;;;;;4998471;28;20355;-57
2021/12/24 05:38:48;;;;;;;25.83;16.73;;;;;;;;;;4990338;28;20221;-57
2021/12/24 05:41:14;;;;;;;28.13;16.87;;;;;;;;;;5000052;28;20286;-56
2021/12/24 05:43:40;;;;;;;26.07;16.33;;;;;;;;;;4998900;28;20239;-57
2021/12/24 05:46:07;;;;;;;24.60;16.13;;;;;;;;;;5002733;28;20240;-57
2021/12/24 05:48:32;;;;;;;24.87;16.77;;;;;;;;;;5004813;28;20232;-57
2021/12/24 05:50:58;;;;;;;26.27;16.77;;;;;;;;;;5002881;28;23145;-57
2021/12/24 05:53:25;;;;;;;30.83;17.50;;;;;;;;;;4985162;28;20787;-57
2021/12/24 05:55:51;;;;;;;26.50;16.80;;;;;;;;;;4990350;28;20950;-57
2021/12/24 05:58:17;;;;;;;28.30;18.20;;;;;;;;;;5003569;28;20227;-56
2021/12/24 06:00:43;;;;;;;29.53;17.30;;;;;;;;;;4997152;28;20597;-56
2021/12/24 06:03:09;;;;;;;31.77;17.93;;;;;;;;;;5001385;28;20407;-57
2021/12/24 06:05:35;;;;;;;28.57;17.97;;;;;;;;;;4995941;28;20298;-57
2021/12/24 06:08:01;;;;;;;24.73;17.50;;;;;;;;;;4990059;28;20284;-56
2021/12/24 06:10:27;;;;;;;25.33;18.60;;;;;;;;;;4993115;28;21511;-57
2021/12/24 06:12:53;;;;;;;24.30;18.13;;;;;;;;;;4987458;28;20224;-57
2021/12/24 06:15:24;;;;;;;31.80;17.60;;;;;;;;;;4988784;28;20333;-57
2021/12/24 06:17:53;;;;;;;28.37;17.73;;;;;;;;;;5003147;28;20235;-57
2021/12/24 06:20:19;;;;;;;29.10;17.20;;;;;;;;;;4996368;28;20236;-57
2021/12/24 06:22:45;;;;;;;26.87;17.63;;;;;;;;;;4995292;28;20231;-56
2021/12/24 06:25:11;;;;;;;26.80;17.70;;;;;;;;;;4979402;28;20717;-57
2021/12/24 06:27:37;;;;;;;28.90;16.83;;;;;;;;;;4991555;28;20264;-57
2021/12/24 06:30:04;;;;;;;22.47;15.53;;;;;;;;;;4988382;28;20265;-57
2021/12/24 06:32:30;;;;;;;27.27;16.77;;;;;;;;;;5009790;28;20232;-57
2021/12/24 06:34:56;;;;;;;25.63;16.87;;;;;;;;;;4980881;28;20233;-56
2021/12/24 06:37:22;;;;;;;25.43;16.17;;;;;;;;;;4990414;28;20379;-56
2021/12/24 06:39:48;;;;;;;24.73;16.97;;;;;;;;;;4997826;28;20650;-56
2021/12/24 06:42:14;;;;;;;24.03;15.23;;;;;;;;;;4991104;28;20236;-57
2021/12/24 06:44:40;;;;;;;27.37;16.13;;;;;;;;;;4993187;28;20326;-57
2021/12/24 06:47:06;;;;;;;26.43;16.20;;;;;;;;;;4992489;28;20246;-57
2021/12/24 06:49:32;;;;;;;23.83;15.80;;;;;;;;;;4991764;28;20327;-56
2021/12/24 06:51:58;;;;;;;28.27;15.77;;;;;;;;;;5000751;28;20253;-57
2021/12/24 06:54:24;;;;;;;28.90;15.83;;;;;;;;;;4986514;28;20237;-56
2021/12/24 06:56:50;;;;;;;24.37;15.40;;;;;;;;;;4988541;28;26930;-57
2021/12/24 06:59:16;;;;;;;25.83;15.67;;;;;;;;;;4999058;28;20254;-57
2021/12/24 07:01:42;;;;;;;25.03;15.10;;;;;;;;;;4995599;28;20701;-57
2021/12/24 07:04:08;;;;;;;31.43;16.40;;;;;;;;;;4979150;28;20278;-56
2021/12/24 07:06:34;;;;;;;26.40;16.30;;;;;;;;;;4988926;28;20842;-57
2021/12/24 07:09:00;;;;;;;28.43;16.07;;;;;;;;;;4996807;28;20745;-57
2021/12/24 07:11:26;;;;;;;24.33;16.00;;;;;;;;;;5000751;28;20232;-57
2021/12/24 07:13:53;;;;;;;23.60;16.33;;;;;;;;;;4994247;28;20227;-57
2021/12/24 07:16:19;;;;;;;21.90;14.77;;;;;;;;;;4995224;28;20315;-57
2021/12/24 07:18:45;;;;;;;25.37;16.53;;;;;;;;;;4997791;28;20302;-57
2021/12/24 07:21:11;;;;;;;30.13;17.83;;;;;;;;;;4988852;28;20264;-57
2021/12/24 07:23:36;;;;;;;27.73;17.80;;;;;;;;;;4995983;28;20424;-57
2021/12/24 07:26:03;;;;;;;23.57;16.17;;;;;;;;;;5001777;28;20394;-57
2021/12/24 07:28:29;;;;;;;24.50;15.73;;;;;;;;;;4994286;28;20536;-57
2021/12/24 07:30:55;;;;;;;27.00;16.93;;;;;;;;;;4994721;28;20370;-57
2021/12/24 07:33:20;;;;;;;29.27;18.00;;;;;;;;;;4995900;28;20649;-57
2021/12/24 07:35:47;;;;;;;33.00;17.60;;;;;;;;;;5003866;28;20291;-57
2021/12/24 07:38:15;;;;;;;30.47;16.73;;;;;;;;;;5011824;28;20228;-57
2021/12/24 07:40:42;;;;;;;30.17;18.73;;;;;;;;;;5011238;28;20884;-57
2021/12/24 07:43:08;;;;;;;29.03;17.73;;;;;;;;;;5009939;28;20312;-57
2021/12/24 07:45:34;;;;;;;39.03;18.50;;;;;;;;;;5015300;28;20345;-57
2021/12/24 07:48:43;;;;;;;31.67;18.47;;;;;;;;;;5020306;28;20220;-57
2021/12/24 07:53:18;;;;;;;39.07;18.17;;;;;;;;;;5022037;28;20237;-57
2021/12/24 07:55:44;;;;;;;33.47;18.33;;;;;;;;;;5017452;28;20271;-57
2021/12/24 07:58:10;;;;;;;28.63;17.33;;;;;;;;;;5012245;28;20243;-57
2021/12/24 08:00:37;;;;;;;30.90;17.17;;;;;;;;;;5016612;28;20233;-57
2021/12/24 08:03:03;;;;;;;32.00;18.13;;;;;;;;;;5011635;28;20907;-57
2021/12/24 08:05:34;;;;;;;37.33;18.53;;;;;;;;;;5010054;28;20290;-57
2021/12/24 08:08:00;;;;;;;30.67;17.53;;;;;;;;;;5009494;28;20295;-56
2021/12/24 08:10:31;;;;;;;36.40;18.60;;;;;;;;;;5003436;28;20220;-57
2021/12/24 08:12:57;;;;;;;31.93;18.47;;;;;;;;;;4996330;28;20244;-57
2021/12/24 08:15:23;;;;;;;38.37;18.33;;;;;;;;;;5009255;28;20646;-57
2021/12/24 08:17:49;;;;;;;31.60;17.47;;;;;;;;;;5005796;28;20236;-57
2021/12/24 08:20:15;;;;;;;31.10;17.97;;;;;;;;;;5009289;28;20233;-57
2021/12/24 08:22:41;;;;;;;35.47;18.03;;;;;;;;;;5004632;28;20233;-57
2021/12/24 08:25:08;;;;;;;34.47;16.67;;;;;;;;;;5010321;28;20231;-57
2021/12/24 08:27:38;;;;;;;34.53;17.40;;;;;;;;;;5009212;28;20858;-57
2021/12/24 08:30:05;;;;;;;34.63;17.33;;;;;;;;;;5003916;28;20590;-56
2021/12/24 08:32:36;;;;;;;36.83;16.73;;;;;;;;;;4992851;28;20242;-57
2021/12/24 08:35:02;;;;;;;32.37;16.73;;;;;;;;;;4995905;28;20344;-57
2021/12/24 08:37:29;;;;;;;35.60;17.60;;;;;;;;;;4991785;28;20734;-57
2021/12/24 08:39:55;;;;;;;28.47;16.47;;;;;;;;;;4993083;28;20358;-57
2021/12/24 08:42:21;;;;;;;28.43;16.23;;;;;;;;;;4988644;28;20236;-57
2021/12/24 08:44:47;;;;;;;30.00;16.97;;;;;;;;;;4992791;28;20260;-57
2021/12/24 08:47:13;;;;;;;25.27;15.27;;;;;;;;;;4995302;28;22151;-57
2021/12/24 08:49:39;;;;;;;29.10;15.70;;;;;;;;;;4997798;28;20568;-57
2021/12/24 08:52:05;;;;;;;28.03;15.27;;;;;;;;;;4981508;28;21263;-57
2021/12/24 08:54:31;;;;;;;26.93;14.03;;;;;;;;;;5008033;28;20289;-57
2021/12/24 08:56:57;;;;;;;28.33;14.80;;;;;;;;;;5000726;28;20231;-57
2021/12/24 08:59:23;;;;;;;27.33;14.03;;;;;;;;;;5016749;28;20239;-57
2021/12/24 09:01:49;;;;;;;24.13;13.77;;;;;;;;;;5013312;28;20239;-57
2021/12/24 09:04:15;;;;;;;27.93;13.70;;;;;;;;;;5017181;28;20259;-57
2021/12/24 09:06:41;;;;;;;23.43;13.83;;;;;;;;;;5017245;28;20248;-57
2021/12/24 09:09:07;;;;;;;22.43;12.93;;;;;;;;;;5017329;28;20689;-57
2021/12/24 09:11:34;;;;;;;28.93;13.53;;;;;;;;;;5011742;28;20315;-57
2021/12/24 09:14:00;;;;;;;26.40;13.27;;;;;;;;;;5007396;28;20651;-57
2021/12/24 09:16:26;;;;;;;27.67;13.17;;;;;;;;;;5014337;28;20398;-57
2021/12/24 09:19:00;;;;;;;30.50;13.50;;;;;;;;;;5013139;28;20630;-57
2021/12/24 09:21:26;;;;;;;26.63;12.23;;;;;;;;;;5007050;28;20236;-56
2021/12/24 09:23:54;;;;;;;23.20;12.33;;;;;;;;;;5009225;28;20301;-57
2021/12/24 09:26:27;;;;;;;21.10;11.23;;;;;;;;;;5001881;28;20244;-57
2021/12/24 09:28:53;;;;;;;26.60;12.73;;;;;;;;;;5009671;28;20677;-58
2021/12/24 09:31:18;;;;;;;23.87;12.10;;;;;;;;;;5010688;28;20228;-57
2021/12/24 09:33:44;;;;;;;23.43;12.63;;;;;;;;;;5004112;28;20873;-57
2021/12/24 09:36:10;;;;;;;19.23;11.70;;;;;;;;;;5000039;28;20896;-57
2021/12/24 09:38:36;;;;;;;23.77;12.23;;;;;;;;;;5003717;28;20523;-58
2021/12/24 09:41:02;;;;;;;25.67;13.67;;;;;;;;;;4999319;28;20231;-57
2021/12/24 09:43:28;;;;;;;21.20;12.20;;;;;;;;;;4996807;28;20245;-57
2021/12/24 09:45:54;;;;;;;22.20;11.80;;;;;;;;;;4991292;28;20529;-58
2021/12/24 09:48:20;;;;;;;29.30;13.67;;;;;;;;;;4991514;28;20236;-58
2021/12/24 09:50:46;;;;;;;23.87;12.40;;;;;;;;;;4994989;28;21093;-58
2021/12/24 09:53:12;;;;;;;30.00;14.27;;;;;;;;;;4993675;28;20255;-58
2021/12/24 09:55:38;;;;;;;28.97;13.03;;;;;;;;;;5004504;28;20233;-58
2021/12/24 09:58:05;;;;;;;25.27;12.73;;;;;;;;;;4993117;28;20660;-58
2021/12/24 10:00:31;;;;;;;21.83;12.90;;;;;;;;;;4991182;28;20229;-57
2021/12/24 10:02:57;;;;;;;23.57;12.93;;;;;;;;;;4992482;28;21390;-58
2021/12/24 10:05:26;;;;;;;27.57;13.20;;;;;;;;;;4991052;28;22023;-58
2021/12/24 10:07:52;;;;;;;23.90;12.30;;;;;;;;;;4992614;28;20266;-58
2021/12/24 10:10:25;;;;;;;29.77;12.00;;;;;;;;;;4993782;28;20255;-58
2021/12/24 10:12:52;;;;;;;25.10;12.53;;;;;;;;;;4996992;28;20316;-58
2021/12/24 10:15:18;;;;;;;24.20;12.77;;;;;;;;;;4998242;28;20239;-58
2021/12/24 10:17:47;;;;;;;26.40;12.73;;;;;;;;;;5007323;28;20236;-58
2021/12/24 10:20:14;;;;;;;29.03;13.30;;;;;;;;;;5007581;28;20221;-57
2021/12/24 10:22:47;;;;;;;21.90;12.57;;;;;;;;;;5003449;28;20614;-58
2021/12/24 10:25:13;;;;;;;27.90;12.07;;;;;;;;;;4999836;28;20228;-57
2021/12/24 10:27:39;;;;;;;25.70;12.63;;;;;;;;;;5005414;28;20734;-58
2021/12/24 10:30:15;;;;;;;25.53;12.53;;;;;;;;;;5010063;28;20259;-57
2021/12/24 10:32:41;;;;;;;20.47;11.67;;;;;;;;;;5014839;28;20244;-57
2021/12/24 10:35:20;;;;;;;22.37;11.23;;;;;;;;;;5020448;28;20215;-57
2021/12/24 10:37:46;;;;;;;18.87;11.27;;;;;;;;;;5020445;28;20768;-57
2021/12/24 10:40:12;;;;;;;20.83;11.37;;;;;;;;;;5013279;28;20228;-57
2021/12/24 10:42:39;;;;;;;21.47;10.40;;;;;;;;;;5015154;28;20331;-57
2021/12/24 10:45:06;;;;;;;17.87;10.60;;;;;;;;;;5019528;28;20678;-57
2021/12/24 10:47:35;;;;;;;24.73;10.27;;;;;;;;;;5023194;28;20233;-57
2021/12/24 10:50:10;;;;;;;19.03;9.60;;;;;;;;;;5017508;28;20443;-57
2021/12/24 10:55:11;;;;;;;17.77;9.27;;;;;;;;;;5021417;28;20235;-57
2021/12/24 10:57:38;;;;;;;18.87;9.80;;;;;;;;;;5016943;28;20257;-57
2021/12/24 11:00:15;;;;;;;20.23;9.43;;;;;;;;;;5004168;28;20677;-58
2021/12/24 11:02:42;;;;;;;16.03;9.03;;;;;;;;;;5015315;28;20780;-58
2021/12/24 11:05:22;;;;;;;15.73;8.83;;;;;;;;;;5016289;28;20224;-57
2021/12/24 11:07:48;;;;;;;19.07;8.83;;;;;;;;;;5013216;28;20475;-57
2021/12/24 11:10:15;;;;;;;17.67;8.67;;;;;;;;;;5009415;28;20279;-58
2021/12/24 11:12:45;;;;;;;16.57;9.17;;;;;;;;;;5000054;28;20237;-58
2021/12/24 11:15:18;;;;;;;17.80;8.93;;;;;;;;;;4994908;28;20240;-58
2021/12/24 11:17:44;;;;;;;19.47;9.93;;;;;;;;;;4995980;28;20229;-57
2021/12/24 11:20:10;;;;;;;19.50;10.30;;;;;;;;;;5008842;28;25375;-57
2021/12/24 11:22:55;;;;;;;17.63;10.50;;;;;;;;;;5009614;28;20976;-58
2021/12/24 11:25:21;;;;;;;21.50;10.47;;;;;;;;;;5014604;28;20850;-58
2021/12/24 11:27:47;;;;;;;20.93;10.53;;;;;;;;;;5007292;28;20289;-57
2021/12/24 11:30:14;;;;;;;20.10;11.17;;;;;;;;;;5002277;28;20843;-57
2021/12/24 11:32:40;;;;;;;20.93;10.30;;;;;;;;;;4993469;28;20921;-58
2021/12/24 11:35:06;;;;;;;19.10;10.10;;;;;;;;;;4999215;28;20224;-57
2021/12/24 11:37:32;;;;;;;17.80;9.43;;;;;;;;;;5005555;28;20536;-57
2021/12/24 11:39:59;;;;;;;17.33;9.53;;;;;;;;;;5009171;28;20244;-57
2021/12/24 11:42:25;;;;;;;22.93;8.97;;;;;;;;;;4997548;28;21604;-58
2021/12/24 11:44:51;;;;;;;15.27;8.90;;;;;;;;;;4995678;28;24152;-57
2021/12/24 11:47:17;;;;;;;22.07;9.67;;;;;;;;;;5005560;28;20821;-57
2021/12/24 11:49:43;;;;;;;17.40;9.30;;;;;;;;;;5011575;28;20235;-57
2021/12/24 11:52:09;;;;;;;16.17;8.67;;;;;;;;;;5010832;28;20415;-57
2021/12/24 11:54:35;;;;;;;19.07;8.43;;;;;;;;;;5001936;28;20240;-57
2021/12/24 11:57:01;;;;;;;12.80;8.17;;;;;;;;;;5004679;28;20254;-57
2021/12/24 11:59:36;;;;;;;19.87;9.17;;;;;;;;;;5000022;28;20221;-57
2021/12/24 12:02:02;;;;;;;18.17;8.17;;;;;;;;;;5005016;28;20244;-58
2021/12/24 12:04:28;;;;;;;16.73;7.20;;;;;;;;;;4998812;28;20270;-57
2021/12/24 12:07:10;;;;;;;17.67;8.07;;;;;;;;;;5004530;28;22594;-58
2021/12/24 12:09:42;;;;;;;21.47;7.93;;;;;;;;;;5011041;28;20748;-57
2021/12/24 12:12:10;;;;;;;15.70;7.87;;;;;;;;;;5004910;28;20335;-58
2021/12/24 12:14:37;;;;;;;20.80;7.87;;;;;;;;;;5016363;28;20235;-57
2021/12/24 12:17:06;;;;;;;17.27;8.17;;;;;;;;;;5001644;28;20263;-58
2021/12/24 12:22:45;;;;;;;13.07;7.50;;;;;;;;;;4992726;28;20611;-57
2021/12/24 12:25:12;;;;;;;16.53;7.93;;;;;;;;;;5001955;28;20790;-58
2021/12/24 12:27:39;;;;;;;13.87;7.60;;;;;;;;;;4996704;28;20367;-57
2021/12/24 12:30:18;;;;;;;14.77;7.50;;;;;;;;;;5002542;28;20228;-58
2021/12/24 12:32:44;;;;;;;14.47;7.43;;;;;;;;;;4998261;28;20255;-58
2021/12/24 12:35:10;;;;;;;15.30;7.40;;;;;;;;;;4998004;28;20621;-57
2021/12/24 12:37:45;;;;;;;20.00;7.13;;;;;;;;;;5009317;28;20909;-57
2021/12/24 12:40:14;;;;;;;14.37;6.90;;;;;;;;;;5004233;28;20736;-57
2021/12/24 12:42:53;;;;;;;16.23;7.10;;;;;;;;;;5004374;28;20610;-60
2021/12/24 12:45:20;;;;;;;15.40;6.80;;;;;;;;;;5003930;28;20763;-57
2021/12/24 12:47:56;;;;;;;17.83;7.70;;;;;;;;;;5006959;28;20532;-57
2021/12/24 12:50:22;;;;;;;13.27;6.33;;;;;;;;;;5002677;28;20288;-57
2021/12/24 12:52:48;;;;;;;14.50;7.23;;;;;;;;;;5004654;28;20335;-57
2021/12/24 12:55:27;;;;;;;12.30;6.83;;;;;;;;;;5003221;28;20228;-58
2021/12/24 12:57:53;;;;;;;16.57;6.73;;;;;;;;;;5013749;28;20263;-58
2021/12/24 13:00:19;;;;;;;11.30;6.23;;;;;;;;;;5014334;28;20233;-58
2021/12/24 13:02:58;;;;;;;14.17;6.60;;;;;;;;;;5013154;28;20879;-57
2021/12/24 13:05:25;;;;;;;20.63;6.93;;;;;;;;;;5000232;28;20382;-58
2021/12/24 13:07:51;;;;;;;17.80;7.00;;;;;;;;;;5009957;28;20754;-57
2021/12/24 13:10:17;;;;;;;16.90;7.07;;;;;;;;;;4996757;28;20381;-57
2021/12/24 13:12:43;;;;;;;16.87;6.77;;;;;;;;;;5002587;28;20597;-58
2021/12/24 13:15:15;;;;;;;21.03;7.17;;;;;;;;;;4998785;28;20575;-57
2021/12/24 13:17:45;;;;;;;19.77;6.83;;;;;;;;;;5005500;28;20290;-58
2021/12/24 13:20:17;;;;;;;22.03;7.43;;;;;;;;;;5015202;28;20241;-58
2021/12/24 13:22:43;;;;;;;16.27;6.97;;;;;;;;;;5008692;28;20243;-57
2021/12/24 13:25:11;;;;;;;15.70;7.50;;;;;;;;;;5012545;28;20555;-58
2021/12/24 13:27:49;;;;;;;19.87;7.53;;;;;;;;;;5008465;28;20764;-57
2021/12/24 13:30:15;;;;;;;13.03;7.30;;;;;;;;;;5000711;28;20970;-57
2021/12/24 13:32:42;;;;;;;18.70;8.27;;;;;;;;;;5004419;28;20992;-58
2021/12/24 13:35:08;;;;;;;15.90;7.67;;;;;;;;;;5000135;28;20351;-57
2021/12/24 13:37:34;;;;;;;16.87;7.67;;;;;;;;;;5003223;28;20244;-58
2021/12/24 13:40:00;;;;;;;15.80;7.77;;;;;;;;;;4990335;28;20395;-57
2021/12/24 13:42:26;;;;;;;15.47;7.63;;;;;;;;;;5005006;28;20340;-58
2021/12/24 13:45:00;;;;;;;14.87;7.90;;;;;;;;;;5002991;28;20729;-58
2021/12/24 13:47:44;;;;;;;14.83;8.50;;;;;;;;;;5004327;28;20894;-58
2021/12/24 13:55:38;;;;;;;14.47;8.23;;;;;;;;;;5000762;28;20238;-57
2021/12/24 13:58:06;;;;;;;16.33;8.60;;;;;;;;;;4997464;28;20220;-58
2021/12/24 14:00:32;;;;;;;19.57;8.53;;;;;;;;;;4988658;28;20231;-58
2021/12/24 14:02:59;;;;;;;13.53;8.53;;;;;;;;;;4990948;28;20232;-57
2021/12/24 14:05:25;;;;;;;17.60;8.50;;;;;;;;;;4988028;28;20256;-58
2021/12/24 14:08:11;;;;;;;16.37;8.07;;;;;;;;;;4990188;28;21001;-58
2021/12/24 14:10:38;;;;;;;17.07;8.57;;;;;;;;;;5003527;28;20238;-58
2021/12/24 14:13:12;;;;;;;18.70;8.97;;;;;;;;;;4988283;28;20241;-58
2021/12/24 14:15:55;;;;;;;19.33;7.87;;;;;;;;;;4996856;28;20236;-58
2021/12/24 14:18:32;;;;;;;18.73;8.57;;;;;;;;;;5005475;28;20363;-57
2021/12/24 14:21:44;;;;;;;22.03;9.43;;;;;;;;;;5003134;28;20407;-57
2021/12/24 14:23:46;;;;;;;15.50;8.33;;;;;;;;;;4999114;28;20232;-57
2021/12/24 14:26:12;;;;;;;12.77;9.20;;;;;;;;;;5000364;28;20326;-57
2021/12/24 14:28:38;;;;;;;15.10;8.90;;;;;;;;;;4994775;28;20231;-58
2021/12/24 14:31:05;;;;;;;23.00;10.03;;;;;;;;;;5005218;28;20336;-58
2021/12/24 14:33:37;;;;;;;22.50;9.47;;;;;;;;;;5005924;28;20714;-57
2021/12/24 14:36:04;;;;;;;25.37;10.17;;;;;;;;;;5009347;28;20272;-58
2021/12/24 14:38:30;;;;;;;18.33;9.43;;;;;;;;;;4998388;28;20243;-58
2021/12/24 14:40:57;;;;;;;17.30;9.53;;;;;;;;;;5001721;28;20316;-58
2021/12/24 14:43:23;;;;;;;20.03;9.03;;;;;;;;;;5000456;28;20283;-58
2021/12/24 14:45:49;;;;;;;19.63;9.30;;;;;;;;;;4986553;28;20863;-58
2021/12/24 14:48:24;;;;;;;16.17;9.97;;;;;;;;;;5006668;28;20236;-58
2021/12/24 14:50:58;;;;;;;17.47;9.60;;;;;;;;;;5000247;28;20702;-58
2021/12/24 14:53:43;;;;;;;24.77;10.50;;;;;;;;;;4997509;28;24116;-57
2021/12/24 14:56:13;;;;;;;16.47;10.80;;;;;;;;;;4995773;28;20224;-58
2021/12/24 14:58:39;;;;;;;17.57;10.10;;;;;;;;;;4997731;28;20583;-58
2021/12/24 15:01:05;;;;;;;14.37;9.07;;;;;;;;;;4983848;28;20336;-57
2021/12/24 15:03:33;;;;;;;21.90;10.33;;;;;;;;;;5000002;28;20236;-58
2021/12/24 15:05:59;;;;;;;20.53;10.10;;;;;;;;;;4992690;28;20309;-58
2021/12/24 15:08:28;;;;;;;19.60;10.17;;;;;;;;;;4998834;28;20232;-58
2021/12/24 15:11:14;;;;;;;21.73;10.23;;;;;;;;;;4995121;28;20236;-58
2021/12/24 15:13:57;;;;;;;18.00;10.30;;;;;;;;;;4995917;28;20228;-58
2021/12/24 15:16:26;;;;;;;19.03;10.17;;;;;;;;;;4996009;28;20235;-58
2021/12/24 15:18:54;;;;;;;15.20;10.23;;;;;;;;;;4999569;28;20241;-57
2021/12/24 15:21:20;;;;;;;17.87;10.03;;;;;;;;;;4995812;28;20350;-57
2021/12/24 15:23:46;;;;;;;16.73;10.00;;;;;;;;;;5000564;28;20846;-58
2021/12/24 15:26:13;;;;;;;20.27;10.63;;;;;;;;;;5009897;28;20239;-56
2021/12/24 15:28:42;;;;;;;22.23;10.70;;;;;;;;;;5007374;28;20239;-56
2021/12/24 15:31:08;;;;;;;23.07;10.50;;;;;;;;;;4996472;28;20897;-59
2021/12/24 15:33:34;;;;;;;22.47;10.17;;;;;;;;;;5002495;28;20224;-56
2021/12/24 15:36:00;;;;;;;26.07;10.40;;;;;;;;;;4990930;28;21119;-56
2021/12/24 15:38:26;;;;;;;19.73;9.93;;;;;;;;;;4988621;28;21172;-56
2021/12/24 15:40:52;;;;;;;18.97;10.83;;;;;;;;;;4989019;28;20232;-56
2021/12/24 15:43:18;;;;;;;22.10;10.43;;;;;;;;;;4999375;28;20237;-56
2021/12/24 15:45:44;;;;;;;22.13;10.23;;;;;;;;;;4996418;28;20346;-57
2021/12/24 15:48:10;;;;;;;16.90;11.07;;;;;;;;;;5008273;28;20667;-57
2021/12/24 15:50:36;;;;;;;26.43;11.20;;;;;;;;;;5008558;28;21552;-57
2021/12/24 15:53:02;;;;;;;19.97;11.13;;;;;;;;;;5011868;28;20829;-56
2021/12/24 15:55:31;;;;;;;21.40;11.13;;;;;;;;;;5008519;28;22018;-56
2021/12/24 15:57:57;;;;;;;24.77;10.97;;;;;;;;;;5009618;28;20689;-57
2021/12/24 16:00:23;;;;;;;18.50;10.70;;;;;;;;;;4990424;28;20236;-57
2021/12/24 16:02:49;;;;;;;18.97;10.73;;;;;;;;;;5009418;28;20717;-57
2021/12/24 16:05:16;;;;;;;21.20;11.33;;;;;;;;;;5006379;28;21100;-57
2021/12/24 16:07:42;;;;;;;21.77;10.50;;;;;;;;;;5004684;28;20241;-57
2021/12/24 16:10:08;;;;;;;22.40;11.20;;;;;;;;;;5003164;28;20231;-57
2021/12/24 16:12:34;;;;;;;21.27;10.77;;;;;;;;;;5001002;28;20727;-57
2021/12/24 16:15:00;;;;;;;15.67;10.87;;;;;;;;;;5014297;28;20239;-57
2021/12/24 16:17:26;;;;;;;25.47;11.23;;;;;;;;;;5013989;28;20322;-56
2021/12/24 16:19:52;;;;;;;17.83;10.90;;;;;;;;;;5011446;28;20240;-57